Brisbane - Nearby METAR Reports

YBBN - Brisbane Intl Ar, Australia
Distance from station: NNE 11km
Updated: 04/12/2022 05:30
Nearby showers, Mostly cloudy
Nearby showers, Mostly cloudy
 Wind from SW
Wind: SW 13 km/h
Temperature: 17°C
Dew Point: 14°C
Humidity: 83%
Barometer: 1013 hPa
Summary: Nearby Showers
Clouds: Mostly cloudy
Visibility: 10 km
Cloud details: Few Clouds 610 m
Partly cloudy 1219 m
Mostly cloudy 1676 m
2022/12/03 19:30 YBBN 031930Z 22007KT 9999 VCSH FEW020 SCT040 BKN055 17/14 Q1013
YAMB - Amberley, Australia
Distance from station: WSW 42km
Updated: 04/12/2022 06:00
Clear
Clear
 Wind from SSW
Wind: SSW 9 km/h
Temperature: 18°C
Dew Point: 13°C
Humidity: 73%
Barometer: 1013 hPa
Clouds: Clear
Visibility: 10 km
2022/12/03 20:00 YAMB 032000Z AUTO 20005KT 9999 // NCD 18/13 Q1013
 
YBCG - Coolangatta Aws, Australia
Distance from station: SSE 102km
Updated: 04/12/2022 06:00
Light rain, Showers, Overcast
Light rain, Showers, Overcast
 Wind from SSW
Wind: SSW 17 km/h
Temperature: 17°C
Dew Point: 15°C
Humidity: 88%
Barometer: 1014 hPa
Summary: Light rain, Showers
Clouds: Overcast
Visibility: 10 km
Cloud details: Overcast 518 m
Overcast 732 m
2022/12/03 20:00 YBCG 032000Z AUTO 20009KT 9999 -SHRA OVC017 OVC024 17/15 Q1014 RESHRA